Time;durP1;ratioP1;P1;durP2;ratioP2;P2;SDS_P1;SDS_P2;PMS_P1;PMS_P2;Temp;Humidity;BMP_temperature;BMP_pressure;BME280_temperature;BME280_humidity;BME280_pressure;Samples;Min_cycle;Max_cycle;Signal;HPM_P1;HPM_P2
2021/08/07 00:00:46;;;;;;;12.20;8.10;;;;;;;12.74;92.88;98117.36;124898;1093;64271;-82
2021/08/07 00:03:24;;;;;;;8.65;7.80;;;;;;;12.73;93.13;98120.16;124869;1093;64223;-82
2021/08/07 00:05:52;;;;;;;9.67;7.93;;;;;;;12.71;93.05;98116.77;124845;1093;64271;-82
2021/08/07 00:08:19;;;;;;;12.20;8.27;;;;;;;12.73;93.52;98117.48;124840;1093;64345;-82
2021/08/07 00:10:46;;;;;;;13.85;9.05;;;;;;;12.77;93.27;98120.70;124921;1093;64249;-82
2021/08/07 00:13:14;;;;;;;12.03;9.07;;;;;;;12.77;93.32;98129.60;124880;1093;64287;-82
2021/08/07 00:15:42;;;;;;;10.47;8.03;;;;;;;12.72;92.92;98124.66;124862;1093;64272;-82
2021/08/07 00:18:09;;;;;;;8.90;7.77;;;;;;;12.68;92.98;98119.72;124822;1093;64284;-82
2021/08/07 00:20:36;;;;;;;17.87;10.97;;;;;;;12.66;93.59;98117.17;124837;1093;64319;-82
2021/08/07 00:23:03;;;;;;;13.75;10.60;;;;;;;12.71;93.62;98125.63;124905;1093;64277;-82
2021/08/07 00:25:30;;;;;;;13.13;8.73;;;;;;;12.73;93.62;98120.99;124855;1093;64427;-82
2021/08/07 00:27:57;;;;;;;11.33;8.90;;;;;;;12.72;93.56;98127.33;124898;1093;64229;-82
2021/08/07 00:30:24;;;;;;;11.37;8.03;;;;;;;12.69;93.73;98127.61;124855;1093;64328;-82
2021/08/07 00:32:51;;;;;;;10.20;9.00;;;;;;;12.67;93.69;98128.73;124880;1093;64316;-82
2021/08/07 00:35:19;;;;;;;10.20;9.13;;;;;;;12.69;93.84;98135.63;124901;1093;64271;-82
2021/08/07 00:37:46;;;;;;;9.73;8.30;;;;;;;12.71;93.98;98138.98;124883;1093;64271;-82
2021/08/07 00:40:13;;;;;;;8.93;8.13;;;;;;;12.76;94.01;98138.59;124879;1092;64368;-82
2021/08/07 00:42:41;;;;;;;9.33;8.07;;;;;;;12.79;93.80;98140.14;124847;1093;64307;-82
2021/08/07 00:45:10;;;;;;;9.57;8.40;;;;;;;12.82;93.90;98142.53;124923;1093;64329;-83
2021/08/07 00:47:37;;;;;;;12.97;9.10;;;;;;;12.80;93.76;98137.34;124880;1091;64271;-82
2021/08/07 00:50:06;;;;;;;11.37;8.80;;;;;;;12.77;93.56;98129.60;124890;1093;64284;-82
2021/08/07 00:52:33;;;;;;;9.77;7.57;;;;;;;12.70;93.24;98131.97;124909;1093;64268;-82
2021/08/07 00:55:03;;;;;;;7.73;7.03;;;;;;;12.63;93.54;98129.97;124827;1093;64358;-82
2021/08/07 00:57:31;;;;;;;14.73;7.63;;;;;;;12.57;93.43;98131.38;124860;1093;64271;-86
2021/08/07 00:59:58;;;;;;;10.00;7.33;;;;;;;12.54;93.28;98128.14;125006;1093;64307;-83
2021/08/07 01:02:27;;;;;;;9.43;6.87;;;;;;;12.50;93.32;98124.88;124949;1093;64431;-82
2021/08/07 01:05:01;;;;;;;7.57;6.20;;;;;;;12.42;92.93;98130.05;125077;1093;64692;-83
2021/08/07 01:08:10;;;;;;;7.10;6.40;;;;;;;12.35;93.21;98129.77;124781;1093;64415;-83
2021/08/07 01:10:40;;;;;;;8.63;6.63;;;;;;;12.29;93.09;98128.45;124828;1093;64325;-83
2021/08/07 01:13:21;;;;;;;9.63;8.28;;;;;;;12.23;93.18;98128.16;124872;1093;64296;-81
2021/08/07 01:15:59;;;;;;;13.03;11.47;;;;;;;12.20;93.41;98133.78;124883;1093;64324;-83
2021/08/07 01:18:29;;;;;;;15.57;13.47;;;;;;;12.13;93.49;98143.30;124841;1093;64276;-81
2021/08/07 01:20:58;;;;;;;10.40;9.07;;;;;;;12.08;93.45;98149.90;124890;1094;64344;-81
2021/08/07 01:23:41;;;;;;;11.97;9.57;;;;;;;12.05;93.76;98152.81;124826;1093;64515;-81
2021/08/07 01:26:17;;;;;;;9.53;8.53;;;;;;;12.04;94.02;98147.63;124852;1093;64298;-81
2021/08/07 01:28:45;;;;;;;10.60;8.20;;;;;;;12.00;94.38;98152.36;124894;1093;64227;-81
2021/08/07 01:31:15;;;;;;;9.30;7.90;;;;;;;12.04;94.21;98151.13;124903;1093;64271;-81
2021/08/07 01:33:45;;;;;;;11.15;10.00;;;;;;;12.07;94.81;98153.53;124934;1093;64383;-81
2021/08/07 01:36:14;;;;;;;12.30;8.97;;;;;;;12.13;94.73;98143.30;124929;1093;64266;-81
2021/08/07 01:38:45;;;;;;;9.20;8.00;;;;;;;12.16;94.70;98157.22;124845;1093;64268;-81
2021/08/07 01:41:17;;;;;;;9.90;8.17;;;;;;;12.17;94.53;98158.93;124884;1093;64217;-81
2021/08/07 01:43:46;;;;;;;11.95;8.90;;;;;;;12.16;94.51;98161.72;124901;1092;64223;-81
2021/08/07 01:46:16;;;;;;;11.03;8.77;;;;;;;12.13;94.13;98156.65;124903;1092;64281;-81
2021/08/07 01:49:08;;;;;;;12.80;9.50;;;;;;;12.10;94.03;98163.10;124900;1093;64413;-81
2021/08/07 01:51:47;;;;;;;12.50;9.53;;;;;;;12.06;94.03;98157.19;124827;1093;64276;-81
2021/08/07 01:54:21;;;;;;;14.23;11.30;;;;;;;11.98;93.71;98154.34;124918;1093;64265;-81
2021/08/07 01:56:50;;;;;;;12.73;9.47;;;;;;;11.86;93.64;98158.05;124898;1093;64334;-82
2021/08/07 01:59:21;;;;;;;14.53;11.07;;;;;;;11.84;94.09;98154.63;124911;1093;64268;-82
2021/08/07 02:01:49;;;;;;;13.20;10.85;;;;;;;11.83;94.07;98160.95;124958;1093;64347;-82
2021/08/07 02:04:20;;;;;;;11.80;9.65;;;;;;;11.85;94.51;98161.68;124943;1093;64306;-82
2021/08/07 02:06:49;;;;;;;13.73;10.07;;;;;;;11.85;94.42;98162.52;124885;1092;64271;-83
2021/08/07 02:09:18;;;;;;;13.75;10.28;;;;;;;11.90;94.76;98158.63;124883;1093;64242;-83
2021/08/07 02:11:46;;;;;;;11.07;9.40;;;;;;;11.91;94.40;98166.52;124899;1093;64380;-83
2021/08/07 02:14:17;;;;;;;13.67;9.90;;;;;;;11.88;94.14;98163.27;124959;1093;64373;-82
2021/08/07 02:16:45;;;;;;;12.07;10.77;;;;;;;11.84;94.46;98165.31;124885;1092;64268;-82
2021/08/07 02:19:14;;;;;;;11.47;9.90;;;;;;;11.84;94.52;98170.64;124864;1093;64276;-82
2021/08/07 02:21:42;;;;;;;12.67;9.70;;;;;;;11.84;94.73;98174.16;124888;1093;64271;-82
2021/08/07 02:24:09;;;;;;;11.60;10.23;;;;;;;11.84;94.55;98176.83;124883;1093;64211;-82
2021/08/07 02:26:37;;;;;;;9.63;8.73;;;;;;;11.84;94.61;98184.00;124894;1091;64309;-82
2021/08/07 02:29:06;;;;;;;9.20;8.30;;;;;;;11.81;94.53;98182.44;124891;1092;64322;-82
2021/08/07 02:31:33;;;;;;;11.00;8.87;;;;;;;11.81;94.80;98184.27;124909;1093;64284;-82
2021/08/07 02:34:01;;;;;;;11.10;9.77;;;;;;;11.80;94.63;98178.08;124872;1092;64300;-82
2021/08/07 02:36:30;;;;;;;11.80;9.63;;;;;;;11.81;94.84;98178.92;124877;1093;64316;-82
2021/08/07 02:38:58;;;;;;;11.37;9.50;;;;;;;11.81;94.75;98185.10;124928;1093;64194;-82
2021/08/07 02:41:27;;;;;;;11.13;9.97;;;;;;;11.81;94.75;98194.94;124895;1093;64287;-81
2021/08/07 02:43:55;;;;;;;11.57;10.10;;;;;;;11.81;94.63;98187.77;124930;1093;64287;-82
2021/08/07 02:46:23;;;;;;;11.57;9.57;;;;;;;11.79;94.60;98184.38;124854;1093;64273;-82
2021/08/07 02:48:52;;;;;;;10.73;9.50;;;;;;;11.78;94.41;98190.70;124838;1093;64363;-81
2021/08/07 02:51:21;;;;;;;11.70;10.45;;;;;;;11.65;94.42;98188.22;124883;1093;64228;-81
2021/08/07 02:53:49;;;;;;;12.98;10.90;;;;;;;11.61;94.51;98191.27;124871;1093;64370;-82
2021/08/07 02:56:17;;;;;;;12.27;9.93;;;;;;;11.59;94.68;98186.08;124907;1093;64362;-82
2021/08/07 02:58:44;;;;;;;11.67;10.30;;;;;;;11.58;95.00;98189.70;124886;1093;64271;-82
2021/08/07 03:01:11;;;;;;;14.85;10.40;;;;;;;11.59;95.01;98196.76;124828;1093;64284;-82
2021/08/07 03:03:41;;;;;;;12.40;11.15;;;;;;;11.61;95.19;98196.61;124863;1093;64268;-81
2021/08/07 03:06:08;;;;;;;15.17;12.23;;;;;;;11.64;95.59;98191.88;124886;1093;64293;-82
2021/08/07 03:08:35;;;;;;;11.13;10.03;;;;;;;11.63;95.45;98194.66;124844;1093;64265;-82
2021/08/07 03:11:03;;;;;;;11.80;10.13;;;;;;;11.64;95.45;98185.70;124877;1093;64284;-82
2021/08/07 03:13:30;;;;;;;10.73;9.63;;;;;;;11.66;95.53;98191.73;124808;1093;64729;-82
2021/08/07 03:15:58;;;;;;;10.80;9.70;;;;;;;11.69;95.39;98186.16;124925;1093;64367;-82
2021/08/07 03:18:25;;;;;;;12.67;10.53;;;;;;;11.72;95.46;98188.56;124866;1092;64271;-82
2021/08/07 03:20:57;;;;;;;10.65;9.20;;;;;;;11.75;95.36;98192.80;124867;1093;64312;-82
2021/08/07 03:23:24;;;;;;;11.93;10.73;;;;;;;11.78;95.37;98195.20;124895;1093;64301;-82
2021/08/07 03:25:52;;;;;;;12.17;10.67;;;;;;;11.82;95.41;98192.16;124892;1093;64431;-82
2021/08/07 03:28:19;;;;;;;13.97;11.63;;;;;;;11.88;95.57;98180.14;124941;1093;64324;-82
2021/08/07 03:30:46;;;;;;;15.75;11.40;;;;;;;11.90;95.20;98186.20;124845;1093;64766;-83
2021/08/07 03:33:13;;;;;;;16.70;12.30;;;;;;;11.89;95.17;98183.64;124835;1093;64268;-83
2021/08/07 03:35:40;;;;;;;13.70;12.30;;;;;;;11.88;95.13;98185.47;124859;1093;64207;-83
2021/08/07 03:38:07;;;;;;;12.10;10.90;;;;;;;11.91;95.00;98179.03;124898;1092;64425;-83
2021/08/07 03:40:34;;;;;;;12.50;11.20;;;;;;;11.90;94.85;98185.33;124899;1092;64289;-82
2021/08/07 03:43:02;;;;;;;13.37;11.97;;;;;;;11.93;94.90;98190.39;124900;1093;64220;-83
2021/08/07 03:45:29;;;;;;;14.67;12.07;;;;;;;11.98;94.76;98189.05;124888;1093;64354;-83
2021/08/07 03:47:56;;;;;;;12.30;11.03;;;;;;;12.34;94.50;98189.50;124828;1093;64744;-83
2021/08/07 03:50:23;;;;;;;12.60;11.25;;;;;;;13.02;93.64;98191.57;124870;1093;64287;-83
2021/08/07 03:52:51;;;;;;;12.50;11.07;;;;;;;13.65;91.96;98192.06;124835;1093;64350;-83
2021/08/07 03:55:18;;;;;;;15.10;12.70;;;;;;;14.16;91.09;98195.36;124856;1093;64284;-83
2021/08/07 03:57:56;;;;;;;14.17;12.63;;;;;;;14.59;89.79;98191.33;124890;1093;64322;-83
2021/08/07 04:00:26;;;;;;;14.10;12.10;;;;;;;15.06;88.75;98188.50;124854;1093;64268;-82
2021/08/07 04:02:54;;;;;;;13.03;11.87;;;;;;;15.41;88.02;98187.72;124954;1093;64290;-82
2021/08/07 04:05:21;;;;;;;13.17;11.37;;;;;;;15.78;87.29;98198.31;124878;1093;64520;-83
2021/08/07 04:07:49;;;;;;;12.65;11.35;;;;;;;16.17;85.96;98189.88;124901;1093;64268;-83
2021/08/07 04:10:17;;;;;;;12.55;10.85;;;;;;;16.53;85.02;98188.89;124874;1093;64276;-82
2021/08/07 04:12:45;;;;;;;11.17;9.97;;;;;;;16.93;84.65;98192.80;124929;1093;64278;-82
2021/08/07 04:15:12;;;;;;;14.27;12.53;;;;;;;17.29;83.29;98188.03;124859;1094;64277;-83
2021/08/07 04:17:39;;;;;;;13.57;11.63;;;;;;;17.55;82.46;98194.13;124873;1093;64440;-83
2021/08/07 04:20:09;;;;;;;13.20;11.90;;;;;;;17.85;82.00;98194.54;124888;1093;64210;-83
2021/08/07 04:22:36;;;;;;;13.38;12.08;;;;;;;18.18;81.32;98198.03;124866;1093;64271;-83
2021/08/07 04:25:05;;;;;;;13.13;11.73;;;;;;;18.46;80.83;98196.80;124900;1093;64284;-82
2021/08/07 04:27:33;;;;;;;13.80;12.30;;;;;;;18.75;80.02;98190.87;124907;1093;64702;-83
2021/08/07 04:30:02;;;;;;;15.00;12.40;;;;;;;19.12;80.35;98187.48;124885;1093;64306;-83
2021/08/07 04:32:29;;;;;;;14.65;13.30;;;;;;;19.71;80.13;98190.50;124916;1093;64733;-83
2021/08/07 04:34:56;;;;;;;13.70;12.20;;;;;;;20.18;78.09;98194.84;124890;1093;64367;-83
2021/08/07 04:37:24;;;;;;;13.73;12.37;;;;;;;20.25;77.49;98196.80;124872;1094;64290;-83
2021/08/07 04:39:51;;;;;;;13.97;12.67;;;;;;;20.36;77.93;98194.50;124833;1093;64341;-83
2021/08/07 04:42:19;;;;;;;13.57;12.37;;;;;;;20.72;77.24;98192.95;124851;1093;64372;-83
2021/08/07 04:44:46;;;;;;;13.17;11.80;;;;;;;20.94;76.29;98197.43;124724;1093;64266;-83
2021/08/07 04:47:13;;;;;;;11.30;10.40;;;;;;;20.94;75.55;98199.30;124875;1093;64246;-83
2021/08/07 04:49:40;;;;;;;10.73;9.67;;;;;;;21.12;74.99;98196.20;124927;1093;64271;-83
2021/08/07 04:52:07;;;;;;;10.17;9.30;;;;;;;21.31;74.52;98190.17;124914;1093;64265;-83
2021/08/07 04:54:35;;;;;;;10.13;9.17;;;;;;;21.53;74.30;98192.94;124827;1093;64276;-83
2021/08/07 04:57:02;;;;;;;10.33;9.53;;;;;;;21.72;73.94;98197.71;124846;1093;64271;-83
2021/08/07 04:59:29;;;;;;;8.83;7.93;;;;;;;21.91;73.33;98196.25;124868;1093;64294;-83
2021/08/07 05:01:56;;;;;;;9.40;8.50;;;;;;;22.17;72.92;98190.22;124901;1093;64284;-83
2021/08/07 05:04:23;;;;;;;7.93;7.13;;;;;;;22.45;72.67;98202.97;124890;1093;64248;-84
2021/08/07 05:06:51;;;;;;;9.47;7.83;;;;;;;22.71;72.40;98203.14;124828;1093;64345;-83
2021/08/07 05:09:18;;;;;;;8.50;7.20;;;;;;;22.96;71.85;98200.81;124912;1093;64283;-83
2021/08/07 05:11:45;;;;;;;6.87;5.93;;;;;;;23.12;71.08;98207.78;124872;1093;64245;-84
2021/08/07 05:14:12;;;;;;;6.40;5.80;;;;;;;23.38;70.56;98208.91;124820;1093;64265;-85
2021/08/07 05:16:39;;;;;;;5.83;5.33;;;;;;;23.36;70.22;98206.41;125272;1093;64454;-84
2021/08/07 05:19:06;;;;;;;5.90;5.40;;;;;;;23.51;70.07;98198.06;125203;1093;64425;-84
2021/08/07 05:21:34;;;;;;;6.50;5.25;;;;;;;23.73;69.72;98215.13;124934;1093;64245;-84
2021/08/07 05:24:02;;;;;;;5.30;4.83;;;;;;;23.97;69.51;98210.14;124810;1093;64268;-87
2021/08/07 05:26:29;;;;;;;7.67;5.17;;;;;;;24.13;68.79;98212.45;124897;1093;64284;-83
2021/08/07 05:28:56;;;;;;;5.00;4.23;;;;;;;24.15;68.55;98209.52;124822;1093;64323;-88
2021/08/07 05:31:23;;;;;;;5.33;4.90;;;;;;;24.23;67.88;98212.87;124882;1092;64271;-82
2021/08/07 05:33:51;;;;;;;5.60;4.55;;;;;;;24.27;67.95;98216.83;124907;1093;64287;-83
2021/08/07 05:36:18;;;;;;;5.40;4.90;;;;;;;24.25;67.38;98212.64;124868;1093;64267;-83
2021/08/07 05:38:45;;;;;;;7.30;4.80;;;;;;;24.38;67.73;98219.98;124895;1093;64283;-83
2021/08/07 05:41:12;;;;;;;4.37;3.97;;;;;;;24.55;66.91;98223.16;124850;1093;64445;-83
2021/08/07 05:43:39;;;;;;;5.57;4.20;;;;;;;24.65;66.90;98226.29;124894;1093;64284;-83
2021/08/07 05:46:07;;;;;;;4.40;4.00;;;;;;;24.73;66.74;98220.61;124912;1093;64280;-83
2021/08/07 05:48:34;;;;;;;3.77;3.47;;;;;;;24.94;67.14;98233.98;124869;1093;64268;-83
2021/08/07 05:51:01;;;;;;;3.80;3.50;;;;;;;25.18;66.40;98224.28;124919;1093;64271;-83
2021/08/07 05:53:28;;;;;;;3.10;2.90;;;;;;;25.22;65.87;98216.50;124891;1093;64283;-83
2021/08/07 05:55:55;;;;;;;3.43;3.13;;;;;;;25.31;65.42;98226.13;124866;1093;64194;-83
2021/08/07 05:58:22;;;;;;;3.43;2.80;;;;;;;25.31;64.82;98225.30;124910;1092;64283;-83
2021/08/07 06:00:52;;;;;;;3.10;2.60;;;;;;;25.26;64.94;98231.39;124907;1093;64271;-83
2021/08/07 06:03:20;;;;;;;2.53;2.30;;;;;;;25.16;65.02;98231.83;124922;1093;64274;-83
2021/08/07 06:05:47;;;;;;;2.55;2.35;;;;;;;25.19;65.18;98230.56;124907;1092;64415;-83
2021/08/07 06:08:14;;;;;;;5.10;2.40;;;;;;;25.32;64.87;98226.95;124870;1093;64438;-83
2021/08/07 06:10:42;;;;;;;2.90;2.05;;;;;;;25.34;64.86;98230.31;124877;1092;64275;-83
2021/08/07 06:13:09;;;;;;;2.33;2.13;;;;;;;25.31;65.14;98231.58;124928;1093;64290;-83
2021/08/07 06:15:36;;;;;;;2.43;1.90;;;;;;;25.37;64.55;98227.14;124875;1093;64271;-83
2021/08/07 06:18:03;;;;;;;1.93;1.83;;;;;;;25.26;63.58;98220.48;124880;1093;64379;-83
2021/08/07 06:20:31;;;;;;;3.30;1.50;;;;;;;25.25;64.29;98226.14;124887;1093;64407;-83
2021/08/07 06:22:58;;;;;;;1.73;1.63;;;;;;;25.19;64.61;98230.56;124913;1093;64272;-83
2021/08/07 06:25:26;;;;;;;1.63;1.53;;;;;;;25.14;63.83;98233.06;124860;1092;64293;-83
2021/08/07 06:27:56;;;;;;;2.17;2.00;;;;;;;25.08;64.63;98231.21;124850;1093;64300;-83
2021/08/07 06:30:26;;;;;;;1.63;1.53;;;;;;;25.08;64.53;98240.22;124937;1093;64267;-83
2021/08/07 06:32:53;;;;;;;2.30;1.50;;;;;;;25.00;63.31;98245.08;124961;1093;64293;-83
2021/08/07 06:35:20;;;;;;;2.50;1.80;;;;;;;24.81;63.69;98247.64;124822;1093;64303;-83
2021/08/07 06:37:48;;;;;;;2.27;1.87;;;;;;;24.66;63.23;98244.30;124890;1093;64188;-83
2021/08/07 06:40:16;;;;;;;1.93;1.50;;;;;;;24.50;63.73;98249.13;124950;1093;64284;-83
2021/08/07 06:42:43;;;;;;;3.50;1.77;;;;;;;24.49;63.97;98244.74;124897;1093;64416;-83
2021/08/07 06:45:11;;;;;;;1.87;1.60;;;;;;;24.48;64.09;98253.94;124909;1093;64210;-83
2021/08/07 06:47:39;;;;;;;1.60;1.50;;;;;;;24.51;63.59;98258.13;124900;1093;64271;-83
2021/08/07 06:50:06;;;;;;;1.60;1.50;;;;;;;24.53;63.94;98256.88;124884;1093;64329;-83
2021/08/07 06:52:35;;;;;;;1.53;1.40;;;;;;;24.51;63.75;98255.41;124829;1093;64364;-83
2021/08/07 06:55:03;;;;;;;1.55;1.40;;;;;;;24.57;64.52;98253.76;124864;1092;64245;-83
2021/08/07 06:57:30;;;;;;;2.73;1.50;;;;;;;24.57;64.08;98260.03;124906;1091;64296;-83
2021/08/07 07:00:01;;;;;;;1.90;1.63;;;;;;;24.57;63.78;98254.59;124907;1093;64274;-83
2021/08/07 07:02:28;;;;;;;2.80;1.80;;;;;;;24.41;63.64;98254.95;124946;1093;64265;-83
2021/08/07 07:04:56;;;;;;;2.23;1.57;;;;;;;24.38;64.45;98258.97;124875;1093;64287;-83
2021/08/07 07:07:23;;;;;;;4.47;1.80;;;;;;;24.34;64.55;98256.86;124862;1093;64266;-82
2021/08/07 07:09:50;;;;;;;1.97;1.77;;;;;;;24.32;64.40;98262.50;124932;1093;64380;-82
2021/08/07 07:12:17;;;;;;;4.10;2.50;;;;;;;23.98;64.26;98260.80;124889;1093;64287;-82
2021/08/07 07:14:44;;;;;;;2.13;1.77;;;;;;;23.60;65.47;98272.19;124897;1092;64324;-82
2021/08/07 07:17:13;;;;;;;2.60;1.60;;;;;;;23.41;66.33;98268.35;124880;1092;64367;-83
2021/08/07 07:19:40;;;;;;;1.87;1.77;;;;;;;23.39;67.31;98267.71;124832;1093;64436;-82
2021/08/07 07:22:08;;;;;;;2.40;1.60;;;;;;;23.28;66.35;98258.25;124878;1092;64907;-82
2021/08/07 07:24:35;;;;;;;1.67;1.57;;;;;;;23.10;66.28;98269.66;124887;1093;64303;-82
2021/08/07 07:27:03;;;;;;;2.75;1.60;;;;;;;22.95;66.80;98275.17;124929;1093;64281;-82
2021/08/07 07:29:30;;;;;;;2.13;1.80;;;;;;;22.89;66.65;98275.98;124896;1093;64287;-82
2021/08/07 07:31:57;;;;;;;1.93;1.70;;;;;;;22.91;67.16;98273.91;124913;1093;64271;-82
2021/08/07 07:34:24;;;;;;;2.23;1.40;;;;;;;22.98;66.19;98280.23;124861;1092;64316;-82
2021/08/07 07:36:52;;;;;;;1.70;1.60;;;;;;;22.89;66.23;98275.98;124884;1093;64268;-82
2021/08/07 07:39:20;;;;;;;2.20;1.60;;;;;;;22.93;66.52;98274.55;124846;1093;64271;-82
2021/08/07 07:41:47;;;;;;;3.63;1.50;;;;;;;23.07;66.56;98270.06;124876;1093;64268;-82
2021/08/07 07:44:14;;;;;;;3.63;1.90;;;;;;;23.29;67.16;98270.80;124900;1093;64319;-82
2021/08/07 07:46:41;;;;;;;1.60;1.50;;;;;;;23.52;66.65;98278.64;124895;1092;64380;-82
2021/08/07 07:49:09;;;;;;;2.03;1.70;;;;;;;23.81;66.59;98282.12;124908;1093;64290;-82
2021/08/07 07:51:36;;;;;;;1.77;1.67;;;;;;;24.04;65.37;98285.31;124866;1091;64293;-82
2021/08/07 07:54:04;;;;;;;2.00;1.80;;;;;;;24.09;64.89;98284.67;124926;1093;64210;-83
2021/08/07 07:56:31;;;;;;;1.50;1.20;;;;;;;24.17;65.51;98289.95;124881;1093;64306;-82
2021/08/07 07:58:58;;;;;;;1.70;1.40;;;;;;;24.18;62.67;98293.50;124914;1093;64230;-82
2021/08/07 08:01:26;;;;;;;1.50;1.40;;;;;;;23.67;63.16;98294.78;124878;1093;64229;-83
2021/08/07 08:03:53;;;;;;;2.33;1.70;;;;;;;23.65;64.25;98296.89;124917;1093;64274;-82
2021/08/07 08:06:20;;;;;;;1.50;1.40;;;;;;;23.71;64.58;98289.80;124923;1092;64271;-82
2021/08/07 08:08:47;;;;;;;3.73;1.80;;;;;;;23.74;64.45;98292.97;124852;1093;64306;-82
2021/08/07 08:11:15;;;;;;;1.73;1.53;;;;;;;23.59;64.02;98295.84;124927;1093;64319;-82
2021/08/07 08:13:42;;;;;;;1.43;1.33;;;;;;;23.45;64.38;98299.52;124821;1093;64310;-82
2021/08/07 08:16:09;;;;;;;2.17;1.63;;;;;;;23.22;65.05;98303.40;124901;1093;64728;-83
2021/08/07 08:18:37;;;;;;;2.50;1.90;;;;;;;22.99;65.66;98300.13;124917;1093;64291;-82
2021/08/07 08:21:05;;;;;;;4.60;2.27;;;;;;;23.06;65.87;98300.98;124793;1093;64270;-82
2021/08/07 08:23:32;;;;;;;2.43;1.40;;;;;;;23.14;66.28;98300.81;124900;1093;64437;-82
2021/08/07 08:25:59;;;;;;;1.53;1.43;;;;;;;23.22;66.03;98303.40;124822;1093;64325;-82
2021/08/07 08:28:27;;;;;;;2.20;1.80;;;;;;;23.28;66.57;98295.48;124891;1093;64371;-82
2021/08/07 08:30:54;;;;;;;3.57;1.63;;;;;;;23.56;66.39;98293.49;124892;1093;64294;-82
2021/08/07 08:33:21;;;;;;;2.67;1.80;;;;;;;23.79;65.83;98295.09;124901;1093;64221;-83
2021/08/07 08:35:49;;;;;;;2.03;1.67;;;;;;;23.95;65.87;98294.70;124926;1092;64294;-82
2021/08/07 08:38:16;;;;;;;1.70;1.60;;;;;;;24.15;63.32;98296.65;124834;1093;64277;-83
2021/08/07 08:40:44;;;;;;;2.63;1.67;;;;;;;23.85;61.62;98294.25;124959;1093;64244;-83
2021/08/07 08:43:12;;;;;;;2.23;1.93;;;;;;;23.89;63.28;98298.26;124899;1092;64287;-83
2021/08/07 08:45:39;;;;;;;1.87;1.70;;;;;;;23.93;63.64;98285.06;124861;1093;64356;-82
2021/08/07 08:48:07;;;;;;;1.70;1.60;;;;;;;24.25;64.63;98283.44;124882;1093;64237;-82
2021/08/07 08:50:34;;;;;;;1.63;1.50;;;;;;;24.48;63.77;98292.08;124859;1093;64203;-83
2021/08/07 08:53:02;;;;;;;1.70;1.60;;;;;;;24.55;63.40;98293.98;124862;1093;64198;-82
2021/08/07 08:55:30;;;;;;;2.33;1.27;;;;;;;24.79;62.98;98290.61;124873;1093;64341;-82
2021/08/07 08:57:58;;;;;;;1.77;1.40;;;;;;;24.94;62.53;98293.12;124810;1093;64396;-82
2021/08/07 09:00:25;;;;;;;1.97;1.20;;;;;;;24.79;61.80;98293.34;124851;1092;64332;-82
2021/08/07 09:02:52;;;;;;;1.37;1.10;;;;;;;24.70;62.18;98294.61;124880;1093;64268;-82
2021/08/07 09:05:19;;;;;;;1.40;1.27;;;;;;;24.59;62.05;98309.68;124915;1093;64297;-82
2021/08/07 09:07:48;;;;;;;2.80;1.00;;;;;;;24.65;62.75;98300.69;124863;1093;64264;-82
2021/08/07 09:10:16;;;;;;;1.90;1.20;;;;;;;24.86;63.32;98294.17;124831;1093;64615;-82
2021/08/07 09:12:52;;;;;;;2.47;1.50;;;;;;;24.98;63.15;98291.63;124890;1093;64456;-82
2021/08/07 09:15:40;;;;;;;2.13;1.10;;;;;;;25.08;62.28;98293.92;124890;1093;64271;-82
2021/08/07 09:18:10;;;;;;;1.97;1.47;;;;;;;25.09;61.69;98287.41;124910;1093;64288;-82
2021/08/07 09:20:39;;;;;;;1.73;1.53;;;;;;;25.16;62.17;98288.27;124954;1093;64279;-82
2021/08/07 09:23:06;;;;;;;2.53;1.30;;;;;;;25.11;61.78;98291.59;124929;1093;64237;-82
2021/08/07 09:25:39;;;;;;;1.80;1.17;;;;;;;24.85;58.97;98287.02;124874;1092;64287;-83
2021/08/07 09:28:11;;;;;;;1.70;1.00;;;;;;;24.70;59.83;98284.55;124855;1092;64287;-82
2021/08/07 09:30:45;;;;;;;1.43;1.33;;;;;;;24.86;60.79;98288.72;124885;1093;64324;-82
2021/08/07 09:33:20;;;;;;;1.43;1.17;;;;;;;25.02;60.35;98286.61;124872;1093;64276;-82
2021/08/07 09:35:48;;;;;;;2.13;1.37;;;;;;;25.11;60.43;98294.32;124892;1093;64306;-84
2021/08/07 09:38:24;;;;;;;1.37;1.10;;;;;;;25.06;60.36;98282.38;124930;1093;64383;-85
2021/08/07 09:41:05;;;;;;;2.15;1.30;;;;;;;24.91;60.67;98288.09;124899;1093;64284;-83
2021/08/07 09:43:33;;;;;;;1.40;1.00;;;;;;;24.93;59.33;98296.88;124985;1093;64244;-82
2021/08/07 09:46:11;;;;;;;1.20;1.10;;;;;;;24.97;60.00;98290.79;124960;1093;64268;-81
2021/08/07 09:48:46;;;;;;;2.10;1.20;;;;;;;25.05;59.01;98283.45;125138;1093;64383;-81
2021/08/07 09:51:15;;;;;;;2.57;1.27;;;;;;;25.17;59.32;98290.80;125334;1093;64275;-82
2021/08/07 09:53:43;;;;;;;1.50;1.40;;;;;;;25.21;59.06;98299.38;125092;1093;64290;-84
2021/08/07 09:56:11;;;;;;;1.63;1.53;;;;;;;25.26;58.90;98296.84;124850;1093;64210;-82
2021/08/07 09:58:38;;;;;;;2.87;1.33;;;;;;;25.31;58.52;98294.31;124941;1093;64237;-82
2021/08/07 10:01:05;;;;;;;1.55;1.30;;;;;;;25.32;57.99;98292.41;124941;1093;64383;-82
2021/08/07 10:03:33;;;;;;;1.67;1.50;;;;;;;25.39;58.95;98290.52;124910;1093;64351;-82
2021/08/07 10:06:22;;;;;;;1.30;1.20;;;;;;;25.43;57.18;98293.64;124946;1093;64303;-82
2021/08/07 10:08:51;;;;;;;1.50;0.83;;;;;;;25.15;56.60;98303.80;125019;1093;64242;-82
2021/08/07 10:11:19;;;;;;;2.00;0.97;;;;;;;24.98;56.61;98295.18;125001;1092;64191;-82
2021/08/07 10:13:47;;;;;;;4.57;1.33;;;;;;;25.01;57.72;98299.38;125040;1093;64314;-82
2021/08/07 10:16:14;;;;;;;1.70;1.40;;;;;;;25.07;56.53;98294.98;124905;1093;64274;-82
2021/08/07 10:18:45;;;;;;;1.45;1.10;;;;;;;25.09;55.98;98292.86;124918;1093;64762;-83
2021/08/07 10:21:13;;;;;;;1.20;1.10;;;;;;;25.18;56.71;98299.80;124909;1093;64284;-83
2021/08/07 10:23:41;;;;;;;2.07;1.07;;;;;;;25.30;55.60;98295.34;124993;1093;64403;-81
2021/08/07 10:26:10;;;;;;;2.30;1.30;;;;;;;25.24;54.67;98300.84;124967;1093;64335;-81
2021/08/07 10:28:45;;;;;;;1.30;1.00;;;;;;;25.31;54.33;98299.77;125109;1093;64223;-82
2021/08/07 10:31:14;;;;;;;1.30;0.90;;;;;;;25.43;53.19;98299.92;125010;1093;64279;-81
2021/08/07 10:33:44;;;;;;;1.97;0.90;;;;;;;25.49;52.72;98292.77;125067;1093;64284;-83
2021/08/07 10:36:13;;;;;;;1.67;1.13;;;;;;;25.49;52.34;98296.36;124951;1093;64274;-81
2021/08/07 10:38:42;;;;;;;1.20;1.10;;;;;;;25.55;53.52;98294.65;124933;1093;64294;-82
2021/08/07 10:41:09;;;;;;;2.90;1.00;;;;;;;25.64;52.85;98287.88;125024;1093;64331;-82
2021/08/07 10:43:38;;;;;;;2.23;0.93;;;;;;;25.72;53.40;98286.80;125082;1093;64635;-82
2021/08/07 10:46:08;;;;;;;1.00;0.90;;;;;;;25.77;53.13;98287.81;124943;1093;64271;-82
2021/08/07 10:48:45;;;;;;;1.07;0.90;;;;;;;25.71;52.40;98293.33;124911;1093;64268;-83
2021/08/07 10:51:18;;;;;;;0.83;0.83;;;;;;;25.43;52.24;98291.74;124911;1093;64412;-82
2021/08/07 10:53:47;;;;;;;1.00;0.60;;;;;;;25.36;52.64;98288.22;124949;1093;64277;-82
2021/08/07 10:56:27;;;;;;;2.00;0.90;;;;;;;25.41;52.33;98291.14;124983;1093;64287;-83
2021/08/07 10:58:54;;;;;;;;;;;;;;;25.49;52.84;98270.94;124980;1091;64190;-81
2021/08/07 11:01:24;;;;;;;1.75;1.00;;;;;;;25.62;52.61;98281.83;124917;1093;64268;-82
2021/08/07 11:04:02;;;;;;;1.10;1.00;;;;;;;25.58;51.32;98286.02;124916;1092;64312;-82
2021/08/07 11:06:38;;;;;;;1.67;1.23;;;;;;;25.65;50.64;98284.11;124890;1093;64412;-82
2021/08/07 11:09:14;;;;;;;1.43;1.23;;;;;;;25.70;52.25;98284.30;125907;1091;64287;-82
2021/08/07 11:11:42;;;;;;;2.00;1.27;;;;;;;25.85;52.05;98281.30;124943;1093;64268;-82
2021/08/07 11:14:25;;;;;;;2.63;1.53;;;;;;;25.99;52.34;98271.16;124875;1093;64267;-82
2021/08/07 11:17:04;;;;;;;1.33;1.00;;;;;;;26.11;51.02;98274.84;124982;1093;64287;-82
2021/08/07 11:19:50;;;;;;;1.33;1.20;;;;;;;26.13;50.95;98274.63;125025;1093;64434;-82
2021/08/07 11:25:26;;;;;;;2.00;1.17;;;;;;;26.07;49.91;98273.63;125016;1093;64315;-82
2021/08/07 11:27:58;;;;;;;1.20;1.10;;;;;;;26.09;50.02;98278.84;124987;1093;64264;-82
2021/08/07 11:30:33;;;;;;;1.13;0.90;;;;;;;26.11;50.10;98274.02;125001;1093;64434;-82
2021/08/07 11:33:09;;;;;;;1.67;1.00;;;;;;;26.10;49.53;98277.81;125022;1093;64396;-82